createdAt,value
2023-03-14T00:01:21.325Z,3.00
2023-03-14T00:03:48.951Z,3.65
2023-03-14T00:06:16.724Z,3.30
2023-03-14T00:08:45.488Z,3.17
2023-03-14T00:11:18.827Z,3.22
2023-03-14T00:13:49.387Z,2.70
2023-03-14T00:16:16.345Z,4.43
2023-03-14T00:18:43.208Z,4.88
2023-03-14T00:21:12.159Z,3.55
2023-03-14T00:23:40.837Z,3.20
2023-03-14T00:26:10.868Z,3.03
2023-03-14T00:28:42.542Z,2.90
2023-03-14T00:31:12.794Z,3.13
2023-03-14T00:33:42.158Z,3.15
2023-03-14T00:36:13.129Z,3.22
2023-03-14T00:38:41.911Z,3.40
2023-03-14T00:41:11.785Z,3.20
2023-03-14T00:43:39.161Z,3.20
2023-03-14T00:46:07.323Z,3.40
2023-03-14T00:48:34.457Z,3.00
2023-03-14T00:51:02.312Z,3.08
2023-03-14T00:53:29.106Z,3.00
2023-03-14T00:55:56.558Z,2.58
2023-03-14T00:58:23.514Z,2.65
2023-03-14T01:00:50.820Z,2.63
2023-03-14T01:03:18.137Z,2.45
2023-03-14T01:05:46.665Z,3.00
2023-03-14T01:08:13.498Z,2.33
2023-03-14T01:10:41.702Z,2.13
2023-03-14T01:13:10.013Z,2.45
2023-03-14T01:15:39.162Z,2.53
2023-03-14T01:18:10.776Z,2.00
2023-03-14T01:20:38.631Z,2.15
2023-03-14T01:23:09.776Z,1.63
2023-03-14T01:25:42.197Z,1.50
2023-03-14T01:28:09.690Z,1.50
2023-03-14T01:30:36.521Z,1.38
2023-03-14T01:33:03.663Z,1.17
2023-03-14T01:35:32.267Z,1.38
2023-03-14T01:38:01.329Z,1.67
2023-03-14T01:40:28.361Z,1.38
2023-03-14T01:42:58.789Z,1.38
2023-03-14T01:46:03.771Z,1.55
2023-03-14T01:48:37.197Z,1.20
2023-03-14T01:51:12.151Z,1.15
2023-03-14T01:53:42.675Z,1.90
2023-03-14T01:56:14.885Z,1.77
2023-03-14T01:58:46.364Z,1.58
2023-03-14T02:01:15.826Z,1.90
2023-03-14T02:03:58.015Z,2.22
2023-03-14T02:06:41.945Z,1.60
2023-03-14T02:09:08.899Z,1.75
2023-03-14T02:11:36.702Z,1.38
2023-03-14T02:14:31.190Z,1.52
2023-03-14T02:17:20.465Z,1.48
2023-03-14T02:20:29.187Z,1.83
2023-03-14T02:22:59.520Z,1.63
2023-03-14T02:25:45.439Z,1.92
2023-03-14T02:28:13.097Z,2.03
2023-03-14T02:30:40.591Z,1.35
2023-03-14T02:33:14.782Z,1.50
2023-03-14T02:36:00.049Z,2.05
2023-03-14T02:39:04.628Z,2.65
2023-03-14T02:41:33.137Z,1.92
2023-03-14T02:44:04.617Z,2.53
2023-03-14T02:46:35.263Z,2.08
2023-03-14T02:49:08.679Z,2.72
2023-03-14T02:51:39.147Z,1.80
2023-03-14T02:54:06.762Z,1.73
2023-03-14T02:56:33.780Z,2.05
2023-03-14T02:59:06.420Z,1.60
2023-03-14T03:01:43.229Z,1.90
2023-03-14T03:04:10.143Z,1.90
2023-03-14T03:06:37.113Z,2.53
2023-03-14T03:09:04.780Z,2.20
2023-03-14T03:11:32.855Z,1.80
2023-03-14T03:14:02.691Z,1.48
2023-03-14T03:16:32.175Z,1.48
2023-03-14T03:19:00.977Z,1.50
2023-03-14T03:21:28.076Z,1.50
2023-03-14T03:23:55.337Z,0.80
2023-03-14T03:26:22.318Z,1.40
2023-03-14T03:28:56.701Z,1.30
2023-03-14T03:31:24.680Z,1.00
2023-03-14T03:33:52.223Z,1.23
2023-03-14T03:36:23.833Z,1.15
2023-03-14T03:38:51.708Z,1.42
2023-03-14T03:41:19.310Z,0.90
2023-03-14T03:43:51.786Z,1.48
2023-03-14T03:46:19.806Z,1.00
2023-03-14T03:48:47.088Z,1.50
2023-03-14T03:51:15.742Z,1.35
2023-03-14T03:53:43.629Z,1.20
2023-03-14T03:56:13.487Z,1.45
2023-03-14T03:58:45.280Z,1.88
2023-03-14T04:01:12.359Z,1.65
2023-03-14T04:03:41.632Z,1.65
2023-03-14T04:06:12.261Z,1.40
2023-03-14T04:08:41.935Z,1.50
2023-03-14T04:11:18.326Z,1.45
2023-03-14T04:13:56.174Z,1.77
2023-03-14T04:16:27.653Z,1.60
2023-03-14T04:19:03.535Z,1.52
2023-03-14T04:21:32.386Z,1.70
2023-03-14T04:24:01.111Z,1.50
2023-03-14T04:26:32.253Z,1.73
2023-03-14T04:28:59.920Z,1.30
2023-03-14T04:31:27.785Z,1.70
2023-03-14T04:33:55.688Z,1.85
2023-03-14T04:36:32.796Z,1.90
2023-03-14T04:39:05.278Z,1.70
2023-03-14T04:41:41.241Z,1.60
2023-03-14T04:44:11.154Z,1.30
2023-03-14T04:46:38.208Z,1.35
2023-03-14T04:49:07.466Z,1.15
2023-03-14T04:51:34.586Z,1.40
2023-03-14T04:54:01.964Z,1.40
2023-03-14T04:56:29.724Z,1.30
2023-03-14T04:58:57.470Z,1.70
2023-03-14T05:01:27.118Z,1.75
2023-03-14T05:04:16.179Z,1.65
2023-03-14T05:06:53.089Z,1.52
2023-03-14T05:09:29.458Z,1.88
2023-03-14T05:12:15.662Z,1.60
2023-03-14T05:15:01.708Z,1.35
2023-03-14T05:17:50.396Z,1.38
2023-03-14T05:20:46.457Z,1.10
2023-03-14T05:23:41.201Z,1.08
2023-03-14T05:26:34.306Z,0.90
2023-03-14T05:29:21.544Z,1.05
2023-03-14T05:32:27.087Z,1.42
2023-03-14T05:35:03.674Z,0.80
2023-03-14T05:37:44.206Z,0.40
2023-03-14T05:40:31.499Z,0.40
2023-03-14T05:43:14.548Z,0.40
2023-03-14T05:45:58.676Z,0.40
2023-03-14T05:48:35.048Z,0.50
2023-03-14T05:51:17.544Z,0.70
2023-03-14T05:54:04.355Z,0.80
2023-03-14T05:57:01.370Z,0.60
2023-03-14T05:59:47.445Z,0.50
2023-03-14T06:05:13.724Z,0.50
2023-03-14T06:07:42.073Z,0.40
2023-03-14T06:10:12.510Z,0.40
2023-03-14T06:12:41.246Z,0.40
2023-03-14T06:15:09.133Z,0.43
2023-03-14T06:17:38.837Z,0.40
2023-03-14T06:20:13.031Z,0.70
2023-03-14T06:22:41.511Z,0.60
2023-03-14T06:25:09.904Z,0.70
2023-03-14T06:27:37.549Z,0.63
2023-03-14T06:30:08.432Z,0.65
2023-03-14T06:32:35.813Z,0.60
2023-03-14T06:35:08.200Z,0.60
2023-03-14T06:37:38.582Z,0.63
2023-03-14T06:40:10.550Z,0.60
2023-03-14T06:42:50.147Z,0.60
2023-03-14T06:45:18.174Z,0.70
2023-03-14T06:47:46.470Z,0.73
2023-03-14T06:50:13.985Z,0.40
2023-03-14T06:52:47.180Z,0.70
2023-03-14T06:55:21.261Z,0.60
2023-03-14T06:57:50.374Z,0.60
2023-03-14T07:00:23.266Z,0.70
2023-03-14T07:02:55.231Z,0.60
2023-03-14T07:05:29.057Z,0.80
2023-03-14T07:08:00.142Z,0.50
2023-03-14T07:10:28.028Z,0.70
2023-03-14T07:12:55.755Z,0.73
2023-03-14T07:15:28.039Z,0.88
2023-03-14T07:18:03.258Z,0.98
2023-03-14T07:20:35.833Z,0.60
2023-03-14T07:23:04.547Z,0.80
2023-03-14T07:25:46.789Z,1.42
2023-03-14T07:28:16.902Z,0.73
2023-03-14T07:30:53.611Z,0.88
2023-03-14T07:33:31.841Z,1.23
2023-03-14T07:36:01.517Z,0.32
2023-03-14T07:38:34.312Z,0.70
2023-03-14T07:41:35.326Z,0.70
2023-03-14T07:44:25.053Z,0.55
2023-03-14T07:46:53.454Z,0.68
2023-03-14T07:49:21.056Z,0.70
2023-03-14T07:51:51.549Z,0.90
2023-03-14T07:54:20.918Z,0.65
2023-03-14T07:56:48.569Z,0.80
2023-03-14T07:59:16.712Z,1.10
2023-03-14T08:01:44.500Z,0.88
2023-03-14T08:04:12.793Z,0.50
2023-03-14T08:06:42.815Z,0.70
2023-03-14T08:09:12.208Z,0.65
2023-03-14T08:11:40.259Z,0.65
2023-03-14T08:14:07.488Z,0.52
2023-03-14T08:16:34.843Z,0.60
2023-03-14T08:19:02.610Z,0.68
2023-03-14T08:21:30.043Z,0.40
2023-03-14T08:23:57.896Z,0.63
2023-03-14T08:26:25.310Z,0.63
2023-03-14T08:28:56.302Z,7.47
2023-03-14T08:31:23.937Z,1.65
2023-03-14T08:33:53.135Z,0.60
2023-03-14T08:36:23.827Z,1.15
2023-03-14T08:38:51.128Z,1.13
2023-03-14T08:41:18.188Z,0.82
2023-03-14T08:43:45.753Z,0.68
2023-03-14T08:46:13.041Z,0.60
2023-03-14T08:48:41.523Z,0.50
2023-03-14T08:51:15.567Z,0.55
2023-03-14T08:53:43.310Z,0.47
2023-03-14T08:56:14.166Z,0.40
2023-03-14T08:58:47.876Z,0.43
2023-03-14T09:01:15.739Z,0.60
2023-03-14T09:03:43.853Z,0.50
2023-03-14T09:06:17.887Z,0.70
2023-03-14T09:08:48.943Z,0.60
2023-03-14T09:11:20.152Z,0.70
2023-03-14T09:13:48.190Z,0.70
2023-03-14T09:16:19.337Z,0.50
2023-03-14T09:18:47.591Z,0.70
2023-03-14T09:21:14.822Z,0.60
2023-03-14T09:23:43.285Z,0.73
2023-03-14T09:26:11.333Z,0.55
2023-03-14T09:28:38.772Z,1.20
2023-03-14T09:31:10.969Z,0.82
2023-03-14T09:33:38.539Z,0.80
2023-03-14T09:36:09.449Z,0.60
2023-03-14T09:38:38.445Z,0.65
2023-03-14T09:41:19.055Z,0.65
2023-03-14T09:43:54.346Z,0.65
2023-03-14T09:46:29.218Z,0.30
2023-03-14T09:48:56.281Z,0.63
2023-03-14T09:51:24.800Z,0.50
2023-03-14T09:53:54.374Z,0.45
2023-03-14T09:56:28.209Z,0.40
2023-03-14T09:59:02.096Z,0.47
2023-03-14T10:01:32.990Z,0.40
2023-03-14T10:04:08.051Z,0.60
2023-03-14T10:06:36.295Z,0.80
2023-03-14T10:09:06.183Z,0.90
2023-03-14T10:11:33.042Z,1.00
2023-03-14T10:14:10.030Z,1.48
2023-03-14T10:16:43.097Z,0.60
2023-03-14T10:19:22.118Z,0.38
2023-03-14T10:21:54.532Z,0.43
2023-03-14T10:24:26.094Z,0.40
2023-03-14T10:26:59.616Z,0.60
2023-03-14T10:29:27.547Z,0.40
2023-03-14T10:32:06.193Z,0.65
2023-03-14T10:34:41.034Z,0.50
2023-03-14T10:37:27.287Z,0.30
2023-03-14T10:40:07.244Z,0.32
2023-03-14T10:42:48.418Z,0.30
2023-03-14T10:45:40.812Z,0.40
2023-03-14T10:48:21.972Z,0.50
2023-03-14T10:50:55.614Z,0.38
2023-03-14T10:53:25.945Z,0.40
2023-03-14T10:55:57.076Z,0.45
2023-03-14T10:58:34.922Z,0.57
2023-03-14T11:01:21.602Z,0.38
2023-03-14T11:03:57.852Z,0.40
2023-03-14T11:06:33.481Z,0.60
2023-03-14T11:09:10.737Z,0.47
2023-03-14T11:11:41.103Z,0.35
2023-03-14T11:14:42.375Z,0.30
2023-03-14T11:17:32.364Z,0.30
2023-03-14T11:20:21.706Z,0.50
2023-03-14T11:23:09.162Z,0.40
2023-03-14T11:25:52.549Z,0.30
2023-03-14T11:28:41.519Z,0.68
2023-03-14T11:31:37.606Z,0.20
2023-03-14T11:37:01.981Z,0.32
2023-03-14T11:39:41.314Z,0.70
2023-03-14T11:42:14.351Z,0.63
2023-03-14T11:44:49.903Z,0.50
2023-03-14T11:47:39.036Z,0.47
2023-03-14T11:50:27.734Z,0.70
2023-03-14T11:53:06.024Z,0.90
2023-03-14T11:55:37.935Z,0.55
2023-03-14T11:58:14.053Z,0.43
2023-03-14T12:00:43.382Z,0.40
2023-03-14T12:03:25.764Z,0.50
2023-03-14T12:06:07.493Z,0.30
2023-03-14T12:09:01.254Z,0.40
2023-03-14T12:11:52.552Z,0.30
2023-03-14T12:14:32.153Z,0.30
2023-03-14T12:17:24.973Z,0.50
2023-03-14T12:20:22.813Z,0.20
2023-03-14T12:23:12.507Z,0.55
2023-03-14T12:25:43.486Z,0.20
2023-03-14T12:28:23.059Z,0.60
2023-03-14T12:30:50.397Z,0.38
2023-03-14T12:33:18.925Z,0.43
2023-03-14T12:36:07.259Z,0.30
2023-03-14T12:38:37.286Z,0.17
2023-03-14T12:41:07.239Z,0.55
2023-03-14T12:43:38.513Z,0.30
2023-03-14T12:46:18.664Z,0.30
2023-03-14T12:48:57.003Z,0.30
2023-03-14T12:52:01.125Z,0.75
2023-03-14T12:54:44.477Z,0.30
2023-03-14T12:57:49.689Z,0.32
2023-03-14T13:00:21.286Z,0.43
2023-03-14T13:02:50.984Z,0.45
2023-03-14T13:05:26.697Z,0.45
2023-03-14T13:08:02.330Z,0.40
2023-03-14T13:10:48.368Z,0.43
2023-03-14T13:13:21.933Z,0.50
2023-03-14T13:16:02.296Z,0.70
2023-03-14T13:18:42.184Z,0.68
2023-03-14T13:21:28.209Z,0.52
2023-03-14T13:23:59.410Z,0.70
2023-03-14T13:26:50.018Z,1.17
2023-03-14T13:29:19.073Z,0.75
2023-03-14T13:31:49.744Z,0.47
2023-03-14T13:34:22.199Z,0.65
2023-03-14T13:36:57.392Z,0.80
2023-03-14T13:39:27.487Z,0.60
2023-03-14T13:45:20.831Z,0.40
2023-03-14T13:47:53.298Z,0.52
2023-03-14T13:50:23.242Z,0.98
2023-03-14T13:52:58.438Z,0.60
2023-03-14T13:55:26.596Z,1.23
2023-03-14T13:58:05.246Z,0.73
2023-03-14T14:00:34.497Z,0.70
2023-03-14T14:03:02.337Z,0.70
2023-03-14T14:05:32.547Z,0.60
2023-03-14T14:08:00.370Z,0.43
2023-03-14T14:10:30.939Z,0.55
2023-03-14T14:13:06.498Z,0.32
2023-03-14T14:15:38.330Z,0.50
2023-03-14T14:18:12.490Z,0.40
2023-03-14T14:20:47.524Z,0.77
2023-03-14T14:23:15.730Z,0.60
2023-03-14T14:25:47.467Z,1.02
2023-03-14T14:28:39.520Z,0.70
2023-03-14T14:31:16.400Z,0.80
2023-03-14T14:33:48.456Z,0.65
2023-03-14T14:36:26.479Z,0.70
2023-03-14T14:39:06.583Z,0.73
2023-03-14T14:41:40.859Z,0.60
2023-03-14T14:44:14.418Z,0.80
2023-03-14T14:46:43.584Z,0.60
2023-03-14T14:49:15.405Z,0.68
2023-03-14T14:51:49.126Z,0.90
2023-03-14T14:54:35.235Z,0.93
2023-03-14T14:57:07.275Z,0.63
2023-03-14T15:02:33.940Z,0.50
2023-03-14T15:05:02.079Z,0.70
2023-03-14T15:07:29.648Z,0.70
2023-03-14T15:09:57.489Z,0.60
2023-03-14T15:12:26.133Z,0.70
2023-03-14T15:14:53.361Z,0.63
2023-03-14T15:17:23.309Z,1.08
2023-03-14T15:19:50.391Z,1.00
2023-03-14T15:22:17.408Z,0.80
2023-03-14T15:24:45.228Z,0.70
2023-03-14T15:27:16.352Z,1.10
2023-03-14T15:29:43.475Z,0.90
2023-03-14T15:32:15.278Z,0.70
2023-03-14T15:34:44.049Z,0.70
2023-03-14T15:37:18.385Z,0.80
2023-03-14T15:39:47.567Z,0.60
2023-03-14T15:42:18.104Z,0.90
2023-03-14T15:44:46.098Z,1.20
2023-03-14T15:47:13.224Z,0.90
2023-03-14T15:49:40.727Z,1.10
2023-03-14T15:52:09.899Z,1.20
2023-03-14T15:54:36.858Z,0.90
2023-03-14T15:57:04.554Z,0.70
2023-03-14T15:59:32.742Z,0.98
2023-03-14T16:01:59.940Z,1.00
2023-03-14T16:04:30.327Z,0.77
2023-03-14T16:06:57.580Z,0.85
2023-03-14T16:09:25.905Z,1.13
2023-03-14T16:11:53.477Z,0.90
2023-03-14T16:14:20.435Z,1.00
2023-03-14T16:16:54.097Z,1.00
2023-03-14T16:19:21.464Z,1.10
2023-03-14T16:21:51.732Z,1.20
2023-03-14T16:24:19.955Z,1.38
2023-03-14T16:26:49.960Z,1.23
2023-03-14T16:29:17.216Z,0.88
2023-03-14T16:31:44.967Z,1.08
2023-03-14T16:34:12.953Z,1.08
2023-03-14T16:36:40.058Z,1.00
2023-03-14T16:39:07.737Z,0.93
2023-03-14T16:41:35.552Z,0.82
2023-03-14T16:44:03.472Z,0.73
2023-03-14T16:46:30.962Z,0.85
2023-03-14T16:48:58.607Z,0.98
2023-03-14T16:51:25.694Z,0.80
2023-03-14T16:53:53.720Z,0.90
2023-03-14T16:56:24.773Z,0.70
2023-03-14T16:58:51.915Z,0.82
2023-03-14T17:01:20.229Z,0.60
2023-03-14T17:03:52.149Z,0.73
2023-03-14T17:06:27.952Z,0.55
2023-03-14T17:08:58.470Z,0.50
2023-03-14T17:11:25.878Z,0.40
2023-03-14T17:13:55.345Z,0.50
2023-03-14T17:16:24.935Z,0.30
2023-03-14T17:18:52.111Z,0.20
2023-03-14T17:21:19.244Z,0.40
2023-03-14T17:23:46.439Z,0.30
2023-03-14T17:26:13.870Z,0.50
2023-03-14T17:28:41.515Z,0.30
2023-03-14T17:31:17.381Z,0.43
2023-03-14T17:33:46.615Z,0.20
2023-03-14T17:36:15.806Z,0.50
2023-03-14T17:38:43.366Z,0.60
2023-03-14T17:41:14.089Z,0.68
2023-03-14T17:43:43.820Z,0.60
2023-03-14T17:46:15.295Z,1.05
2023-03-14T17:48:44.827Z,0.68
2023-03-14T17:51:13.351Z,0.70
2023-03-14T17:53:40.640Z,0.63
2023-03-14T17:56:08.569Z,0.70
2023-03-14T17:58:38.873Z,0.77
2023-03-14T18:01:21.778Z,1.00
2023-03-14T18:03:49.377Z,0.35
2023-03-14T18:06:19.839Z,0.52
2023-03-14T18:08:47.648Z,0.43
2023-03-14T18:11:19.424Z,0.40
2023-03-14T18:13:48.891Z,0.63
2023-03-14T18:16:16.292Z,0.80
2023-03-14T18:18:47.750Z,0.70
2023-03-14T18:21:16.742Z,0.70
2023-03-14T18:24:09.106Z,0.70
2023-03-14T18:26:36.127Z,0.22
2023-03-14T18:29:03.346Z,0.50
2023-03-14T18:31:35.143Z,0.60
2023-03-14T18:34:03.074Z,0.57
2023-03-14T18:36:30.613Z,0.57
2023-03-14T18:39:00.671Z,0.40
2023-03-14T18:41:28.639Z,0.28
2023-03-14T18:43:55.759Z,0.65
2023-03-14T18:46:25.965Z,0.30
2023-03-14T18:48:58.553Z,0.40
2023-03-14T18:51:29.138Z,0.30
2023-03-14T18:54:10.843Z,0.30
2023-03-14T18:56:41.319Z,0.38
2023-03-14T18:59:09.801Z,0.30
2023-03-14T19:01:38.262Z,0.40
2023-03-14T19:04:10.475Z,0.50
2023-03-14T19:06:38.589Z,0.50
2023-03-14T19:09:09.416Z,0.32
2023-03-14T19:11:36.845Z,0.43
2023-03-14T19:14:10.134Z,0.50
2023-03-14T19:16:37.802Z,0.40
2023-03-14T19:19:04.835Z,0.28
2023-03-14T19:21:36.411Z,0.38
2023-03-14T19:24:06.721Z,0.40
2023-03-14T19:26:36.349Z,0.52
2023-03-14T19:29:03.300Z,0.40
2023-03-14T19:31:31.514Z,0.47
2023-03-14T19:34:00.154Z,0.50
2023-03-14T19:36:29.676Z,0.40
2023-03-14T19:39:04.039Z,0.40
2023-03-14T19:41:32.454Z,0.68
2023-03-14T19:44:04.337Z,0.70
2023-03-14T19:46:41.910Z,0.40
2023-03-14T19:49:22.840Z,0.75
2023-03-14T19:51:53.656Z,0.50
2023-03-14T19:54:23.296Z,0.50
2023-03-14T19:56:52.597Z,0.50
2023-03-14T19:59:22.065Z,0.40
2023-03-14T20:01:55.327Z,0.50
2023-03-14T20:04:26.746Z,0.40
2023-03-14T20:06:59.471Z,0.50
2023-03-14T20:09:28.880Z,0.40
2023-03-14T20:12:02.050Z,0.55
2023-03-14T20:14:29.708Z,0.60
2023-03-14T20:16:59.564Z,0.60
2023-03-14T20:19:58.382Z,0.60
2023-03-14T20:22:40.540Z,0.70
2023-03-14T20:25:13.063Z,0.52
2023-03-14T20:27:52.504Z,0.43
2023-03-14T20:30:22.027Z,0.45
2023-03-14T20:32:51.395Z,0.60
2023-03-14T20:35:27.484Z,0.40
2023-03-14T20:37:56.251Z,0.50
2023-03-14T20:40:31.517Z,0.57
2023-03-14T20:42:59.282Z,0.50
2023-03-14T20:45:29.923Z,0.80
2023-03-14T20:47:58.345Z,0.88
2023-03-14T20:50:27.448Z,0.63
2023-03-14T20:52:54.812Z,0.93
2023-03-14T20:55:22.855Z,0.95
2023-03-14T20:57:51.107Z,0.60
2023-03-14T21:00:28.934Z,0.90
2023-03-14T21:03:11.789Z,0.82
2023-03-14T21:05:43.062Z,1.00
2023-03-14T21:08:13.768Z,1.40
2023-03-14T21:10:41.564Z,1.08
2023-03-14T21:13:11.356Z,1.25
2023-03-14T21:15:38.551Z,1.80
2023-03-14T21:18:07.934Z,1.08
2023-03-14T21:20:37.124Z,1.50
2023-03-14T21:23:05.659Z,1.20
2023-03-14T21:25:35.617Z,1.92
2023-03-14T21:28:05.736Z,3.83
2023-03-14T21:30:34.765Z,3.35
2023-03-14T21:33:02.669Z,1.83
2023-03-14T21:35:32.310Z,2.08
2023-03-14T21:37:59.819Z,1.73
2023-03-14T21:40:28.647Z,2.75
2023-03-14T21:42:55.546Z,3.00
2023-03-14T21:45:27.462Z,1.45
2023-03-14T21:47:56.314Z,1.33
2023-03-14T21:50:26.455Z,1.80
2023-03-14T21:52:56.952Z,1.35
2023-03-14T21:55:28.093Z,1.63
2023-03-14T21:58:03.451Z,1.52
2023-03-14T22:00:36.839Z,1.00
2023-03-14T22:03:12.918Z,1.33
2023-03-14T22:05:44.989Z,1.33
2023-03-14T22:08:18.338Z,0.98
2023-03-14T22:10:50.855Z,1.40
2023-03-14T22:13:19.186Z,1.88
2023-03-14T22:15:48.466Z,1.73
2023-03-14T22:18:17.606Z,1.45
2023-03-14T22:20:45.170Z,1.33
2023-03-14T22:23:13.571Z,1.23
2023-03-14T22:25:49.587Z,1.83
2023-03-14T22:28:18.695Z,0.68
2023-03-14T22:30:50.502Z,1.42
2023-03-14T22:33:19.105Z,1.33
2023-03-14T22:35:52.950Z,2.28
2023-03-14T22:38:20.180Z,1.23
2023-03-14T22:40:49.420Z,0.80
2023-03-14T22:43:16.629Z,1.38
2023-03-14T22:45:44.001Z,1.40
2023-03-14T22:48:11.251Z,1.15
2023-03-14T22:50:40.449Z,1.50
2023-03-14T22:53:09.584Z,1.40
2023-03-14T22:55:37.709Z,1.40
2023-03-14T22:58:05.290Z,1.50
2023-03-14T23:00:33.922Z,1.20
2023-03-14T23:03:01.340Z,1.35
2023-03-14T23:05:30.506Z,0.80
2023-03-14T23:07:57.903Z,1.75
2023-03-14T23:10:26.026Z,1.35
2023-03-14T23:12:57.883Z,1.30
2023-03-14T23:15:26.026Z,1.08
2023-03-14T23:17:54.280Z,1.42
2023-03-14T23:20:22.444Z,1.67
2023-03-14T23:22:51.114Z,1.05
2023-03-14T23:25:22.058Z,1.15
2023-03-14T23:27:54.575Z,0.90
2023-03-14T23:30:22.112Z,1.08
2023-03-14T23:32:49.670Z,1.05
2023-03-14T23:35:18.651Z,1.30
2023-03-14T23:37:45.545Z,1.75
2023-03-14T23:40:12.614Z,1.55
2023-03-14T23:42:41.298Z,1.50
2023-03-14T23:45:18.044Z,1.40
2023-03-14T23:47:45.282Z,1.50
2023-03-14T23:50:12.896Z,1.40
2023-03-14T23:52:40.394Z,1.20
2023-03-14T23:55:08.857Z,1.30
2023-03-14T23:57:35.947Z,1.63
